Time;durP1;ratioP1;P1;durP2;ratioP2;P2;SDS_P1;SDS_P2;PMS_P1;PMS_P2;Temp;Humidity;BMP_temperature;BMP_pressure;BME280_temperature;BME280_humidity;BME280_pressure;Samples;Min_cycle;Max_cycle;Signal;HPM_P1;HPM_P2
2023/09/09 00:03:45;;;;;;;2.58;1.67;;;;;;;19.48;100.00;98532.47;15281298;19;20685;-49
2023/09/09 00:09:13;;;;;;;1.67;1.50;;;;;;;19.34;100.00;98521.63;15278602;19;20860;-49
2023/09/09 00:14:38;;;;;;;2.30;1.70;;;;;;;19.21;100.00;98527.94;15281166;19;20082;-48
2023/09/09 00:20:05;;;;;;;2.58;1.50;;;;;;;19.14;100.00;98529.03;15281244;19;20058;-51
2023/09/09 00:25:34;;;;;;;5.65;1.70;;;;;;;19.11;100.00;98524.00;15277499;19;20007;-49
2023/09/09 00:30:59;;;;;;;1.50;1.40;;;;;;;19.07;100.00;98520.84;15277479;19;20021;-49
2023/09/09 00:36:23;;;;;;;2.15;1.52;;;;;;;19.04;100.00;98519.38;15280377;19;20022;-49
2023/09/09 00:41:51;;;;;;;2.47;1.50;;;;;;;19.00;100.00;98520.84;15277349;19;20073;-53
2023/09/09 00:47:15;;;;;;;1.83;1.70;;;;;;;18.94;100.00;98519.81;15279168;19;20077;-54
2023/09/09 00:52:41;;;;;;;3.15;1.50;;;;;;;18.86;100.00;98519.19;15281489;19;20386;-52
2023/09/09 00:58:09;;;;;;;2.95;1.48;;;;;;;18.81;100.00;98510.78;15271157;19;20018;-51
2023/09/09 01:03:34;;;;;;;2.80;1.50;;;;;;;18.69;100.00;98508.72;15270525;19;20350;-52
2023/09/09 01:08:59;;;;;;;2.42;1.60;;;;;;;18.61;100.00;98519.84;15275491;19;20367;-52
2023/09/09 01:14:26;;;;;;;1.45;1.35;;;;;;;18.54;100.00;98510.81;15279309;19;20034;-50
2023/09/09 01:19:51;;;;;;;2.05;1.50;;;;;;;18.48;100.00;98516.09;15277881;19;20066;-50
2023/09/09 01:25:19;;;;;;;1.95;1.60;;;;;;;18.45;100.00;98519.22;15278040;19;20018;-48
2023/09/09 01:30:45;;;;;;;2.78;1.60;;;;;;;18.35;100.00;98510.63;15276289;19;20024;-49
2023/09/09 01:36:11;;;;;;;2.42;1.63;;;;;;;18.28;100.00;98516.06;15269268;19;20031;-48
2023/09/09 01:41:38;;;;;;;2.72;1.63;;;;;;;18.19;100.00;98509.16;15273589;19;20369;-48
2023/09/09 01:47:03;;;;;;;3.60;1.50;;;;;;;18.09;100.00;98509.56;15273341;19;20372;-47
2023/09/09 01:52:29;;;;;;;2.60;1.70;;;;;;;17.99;100.00;98509.94;15273793;19;20027;-51
2023/09/09 01:57:56;;;;;;;1.92;1.60;;;;;;;17.93;100.00;98515.38;15277709;19;20370;-53
2023/09/09 02:03:21;;;;;;;2.10;1.60;;;;;;;17.86;100.00;98509.91;15271948;19;20010;-51
2023/09/09 02:08:46;;;;;;;1.50;1.40;;;;;;;17.79;100.00;98498.16;15265772;19;20022;-54
2023/09/09 02:14:15;;;;;;;4.53;1.70;;;;;;;17.74;100.00;98503.41;15274708;19;20024;-51
2023/09/09 02:19:46;;;;;;;3.05;1.60;;;;;;;17.69;100.00;98504.84;15270222;19;20496;-52
2023/09/09 02:25:11;;;;;;;1.90;1.70;;;;;;;17.65;100.00;98503.56;15269449;19;20478;-50
2023/09/09 02:30:39;;;;;;;2.10;1.70;;;;;;;17.60;100.00;98516.13;15276674;19;20366;-55
2023/09/09 02:36:04;;;;;;;2.47;1.67;;;;;;;17.54;100.00;98515.06;15265837;19;20082;-49
2023/09/09 02:41:28;;;;;;;2.05;1.73;;;;;;;17.48;100.00;98519.44;15262774;19;20103;-48
2023/09/09 02:46:55;;;;;;;2.08;1.77;;;;;;;17.41;100.00;98521.31;15272247;19;20407;-51
2023/09/09 02:52:21;;;;;;;2.90;1.80;;;;;;;17.34;100.00;98525.88;15273013;19;20014;-49
2023/09/09 02:57:51;;;;;;;2.05;1.80;;;;;;;17.29;100.00;98528.38;15270944;19;20011;-48
2023/09/09 03:03:20;;;;;;;2.42;1.90;;;;;;;17.19;100.00;98524.13;15272289;19;20026;-51
2023/09/09 03:08:45;;;;;;;5.20;2.03;;;;;;;17.10;100.00;98518.00;15264041;19;20064;-51
2023/09/09 03:14:10;;;;;;;1.83;1.73;;;;;;;17.04;100.00;98517.97;15263772;19;20014;-52
2023/09/09 03:19:45;;;;;;;2.47;1.70;;;;;;;16.98;100.00;98529.69;15265712;19;20060;-49
2023/09/09 03:25:11;;;;;;;1.85;1.70;;;;;;;16.92;100.00;98531.28;15269915;19;20018;-49
2023/09/09 03:30:35;;;;;;;4.22;1.88;;;;;;;16.87;100.00;98528.31;15282632;19;20082;-49
2023/09/09 03:36:02;;;;;;;2.58;1.75;;;;;;;16.81;100.00;98523.69;15284139;19;20374;-50
2023/09/09 03:41:27;;;;;;;2.08;1.77;;;;;;;16.70;100.00;98523.16;15276566;19;20050;-51
2023/09/09 03:46:53;;;;;;;3.13;1.70;;;;;;;16.66;100.00;98521.91;15274247;19;20397;-51
2023/09/09 03:52:20;;;;;;;2.63;1.80;;;;;;;16.58;100.00;98524.78;15284395;19;20090;-52
2023/09/09 03:57:45;;;;;;;2.13;1.80;;;;;;;16.49;100.00;98518.63;15279155;19;20748;-49
2023/09/09 04:03:10;;;;;;;2.83;1.95;;;;;;;16.42;100.00;98509.56;15275208;19;20801;-52
2023/09/09 04:08:39;;;;;;;5.30;1.90;;;;;;;16.37;100.00;98517.50;15274989;19;20018;-48
2023/09/09 04:14:04;;;;;;;2.95;1.77;;;;;;;16.27;100.00;98521.41;15274013;19;20015;-53
2023/09/09 04:19:35;;;;;;;5.05;1.98;;;;;;;16.22;100.00;98518.41;15267846;19;20002;-47
2023/09/09 04:25:02;;;;;;;2.35;1.90;;;;;;;16.17;100.00;98524.44;15281345;19;20011;-54
2023/09/09 04:30:28;;;;;;;2.35;1.80;;;;;;;16.12;100.00;98526.06;15279421;19;20055;-46
2023/09/09 04:35:53;;;;;;;2.75;1.83;;;;;;;16.06;100.00;98515.94;15280095;19;20026;-50
2023/09/09 04:41:20;;;;;;;2.28;1.70;;;;;;;16.00;100.00;98515.69;15274692;19;20020;-47
2023/09/09 04:46:46;;;;;;;3.45;2.00;;;;;;;15.93;100.00;98522.97;15273687;19;20034;-52
2023/09/09 04:52:11;;;;;;;2.78;1.80;;;;;;;15.90;100.00;98533.34;15275676;19;20018;-53
2023/09/09 04:57:38;;;;;;;4.30;2.10;;;;;;;15.87;100.00;98534.59;15276990;19;20014;-51
2023/09/09 05:03:03;;;;;;;4.13;1.90;;;;;;;15.82;100.00;98534.28;15273580;19;20480;-52
2023/09/09 05:08:28;;;;;;;2.22;1.80;;;;;;;15.81;100.00;98528.00;15274137;19;20027;-50
2023/09/09 05:13:55;;;;;;;5.40;1.92;;;;;;;15.79;100.00;98543.66;15277516;19;20014;-47
2023/09/09 05:19:20;;;;;;;3.15;2.20;;;;;;;15.78;100.00;98543.88;15266736;19;20361;-49
2023/09/09 05:24:44;;;;;;;3.60;2.00;;;;;;;15.76;100.00;98543.22;15276717;19;20432;-50
2023/09/09 05:30:13;;;;;;;3.28;2.75;;;;;;;15.74;100.00;98548.84;15276952;19;20041;-51
2023/09/09 05:35:37;;;;;;;4.05;2.80;;;;;;;15.74;100.00;98553.41;15275976;19;20015;-47
2023/09/09 05:41:02;;;;;;;4.20;2.15;;;;;;;15.72;100.00;98549.00;15270446;19;20010;-52
2023/09/09 05:46:29;;;;;;;2.60;2.40;;;;;;;15.73;100.00;98549.88;15272533;19;20035;-48
2023/09/09 05:51:54;;;;;;;2.55;2.03;;;;;;;15.77;100.00;98550.31;15259704;19;20483;-48
2023/09/09 05:57:19;;;;;;;2.70;1.92;;;;;;;15.78;100.00;98554.72;15270855;19;20034;-48
2023/09/09 06:02:47;;;;;;;2.72;1.88;;;;;;;15.83;100.00;98544.97;15269620;19;20013;-49
2023/09/09 06:08:13;;;;;;;3.45;2.00;;;;;;;15.89;100.00;98548.81;15270424;19;20632;-49
2023/09/09 06:13:38;;;;;;;3.53;1.98;;;;;;;15.95;100.00;98553.47;15271976;19;20022;-49
2023/09/09 06:19:12;;;;;;;6.05;2.40;;;;;;;16.02;100.00;98548.09;15264538;19;20500;-49
2023/09/09 06:24:37;;;;;;;3.47;2.40;;;;;;;16.11;100.00;98562.41;15259137;19;20006;-49
2023/09/09 06:30:02;;;;;;;4.30;2.40;;;;;;;16.21;100.00;98562.09;15270587;19;20027;-48
2023/09/09 06:35:30;;;;;;;3.88;2.20;;;;;;;16.35;100.00;98568.50;15271819;19;20081;-49
2023/09/09 06:40:56;;;;;;;3.40;2.20;;;;;;;16.46;100.00;98566.09;15269780;19;20014;-50
2023/09/09 06:46:21;;;;;;;3.33;2.50;;;;;;;16.65;100.00;98569.19;15272676;19;20414;-51
2023/09/09 06:51:48;;;;;;;4.35;2.20;;;;;;;16.79;100.00;98568.25;15271875;19;20014;-52
2023/09/09 06:57:13;;;;;;;3.92;2.20;;;;;;;16.99;100.00;98570.28;15255708;19;20010;-50
2023/09/09 07:02:38;;;;;;;3.83;2.10;;;;;;;17.14;100.00;98575.63;15262568;19;20038;-51
2023/09/09 07:08:06;;;;;;;2.95;2.10;;;;;;;17.33;100.00;98576.78;15262235;19;20019;-50
2023/09/09 07:13:32;;;;;;;4.82;2.03;;;;;;;17.52;100.00;98580.63;15269763;19;20010;-52
2023/09/09 07:19:04;;;;;;;3.10;1.92;;;;;;;17.70;100.00;98581.97;15263344;19;20022;-55
2023/09/09 07:24:31;;;;;;;4.22;1.90;;;;;;;17.87;100.00;98583.28;15260622;19;20029;-53
2023/09/09 07:29:56;;;;;;;2.83;2.03;;;;;;;18.05;100.00;98579.16;15246203;19;20524;-55
2023/09/09 07:35:21;;;;;;;3.08;2.30;;;;;;;18.20;100.00;98580.88;15265801;19;20015;-54
2023/09/09 07:40:48;;;;;;;3.17;2.03;;;;;;;18.35;100.00;98573.34;15268664;19;20853;-51
2023/09/09 07:46:17;;;;;;;2.15;1.98;;;;;;;18.50;100.00;98580.50;15262029;19;20028;-55
2023/09/09 07:51:42;;;;;;;2.17;1.90;;;;;;;18.66;100.00;98574.63;15268044;19;20478;-52
2023/09/09 07:57:09;;;;;;;3.60;1.90;;;;;;;18.84;100.00;98571.25;15266508;19;20078;-53
2023/09/09 08:02:35;;;;;;;2.78;1.90;;;;;;;19.06;100.00;98571.03;15254965;19;20015;-50
2023/09/09 08:08:00;;;;;;;2.67;1.92;;;;;;;19.35;100.00;98572.44;15264381;19;20087;-50
2023/09/09 08:13:27;;;;;;;2.50;1.80;;;;;;;19.53;100.00;98573.66;15268869;19;20022;-52
2023/09/09 08:18:54;;;;;;;2.67;1.75;;;;;;;19.78;100.00;98567.47;15275834;19;20025;-54
2023/09/09 08:24:19;;;;;;;3.95;1.73;;;;;;;20.05;100.00;98573.66;15279604;19;20025;-53
2023/09/09 08:29:46;;;;;;;3.10;1.90;;;;;;;20.35;100.00;98567.56;15285388;19;20468;-52
2023/09/09 08:35:12;;;;;;;2.65;1.80;;;;;;;20.59;100.00;98565.91;15269415;19;20492;-52
2023/09/09 08:40:48;;;;;;;5.57;1.70;;;;;;;20.88;100.00;98563.56;15278840;19;20021;-51
2023/09/09 08:46:21;;;;;;;3.35;1.80;;;;;;;21.14;100.00;98567.13;15281319;19;20444;-52
2023/09/09 08:51:52;;;;;;;3.20;1.80;;;;;;;21.44;100.00;98566.38;15277975;19;20111;-51
2023/09/09 08:57:17;;;;;;;2.95;1.80;;;;;;;21.65;100.00;98564.28;15279324;19;20010;-50
2023/09/09 09:02:46;;;;;;;3.42;1.77;;;;;;;21.95;100.00;98569.78;15274952;19;20435;-50
2023/09/09 09:08:10;;;;;;;2.08;1.70;;;;;;;22.27;100.00;98568.72;15268922;19;20118;-52
2023/09/09 09:13:36;;;;;;;2.63;1.80;;;;;;;22.44;100.00;98569.72;15280015;19;20476;-53
2023/09/09 09:19:03;;;;;;;3.05;1.80;;;;;;;22.63;100.00;98572.41;15274169;19;20018;-51
2023/09/09 09:24:29;;;;;;;2.17;1.65;;;;;;;22.86;100.00;98565.25;15276921;19;20738;-56
2023/09/09 09:29:54;;;;;;;2.03;1.75;;;;;;;23.08;100.00;98563.59;15273610;19;20386;-53
2023/09/09 09:35:27;;;;;;;2.55;1.70;;;;;;;23.35;100.00;98563.09;15273131;19;20035;-55
2023/09/09 09:40:53;;;;;;;3.10;1.60;;;;;;;23.60;100.00;98561.97;15265110;19;20389;-56
2023/09/09 09:46:19;;;;;;;3.00;1.50;;;;;;;23.81;100.00;98560.47;15275426;19;20039;-55
2023/09/09 09:51:53;;;;;;;1.85;1.67;;;;;;;24.05;100.00;98554.09;15273218;19;20014;-53
2023/09/09 09:57:18;;;;;;;1.50;1.40;;;;;;;24.29;100.00;98550.09;15270565;19;20014;-55
2023/09/09 10:02:43;;;;;;;6.15;1.70;;;;;;;24.62;100.00;98544.88;15272738;19;20016;-55
2023/09/09 10:08:23;;;;;;;1.40;1.30;;;;;;;24.79;100.00;98538.56;15262541;19;20023;-56
2023/09/09 10:13:53;;;;;;;1.55;1.40;;;;;;;24.98;100.00;98534.44;15264375;19;20515;-53
2023/09/09 10:19:19;;;;;;;1.55;1.23;;;;;;;25.24;95.73;98535.63;15268253;19;20078;-56
2023/09/09 10:24:48;;;;;;;1.30;1.20;;;;;;;25.42;86.51;98538.38;15269881;19;20372;-52
2023/09/09 10:30:14;;;;;;;2.38;1.30;;;;;;;25.59;80.62;98532.78;15271892;19;20025;-51
2023/09/09 10:35:39;;;;;;;1.30;1.20;;;;;;;25.70;77.74;98526.31;15274989;19;20085;-52
2023/09/09 10:41:07;;;;;;;2.53;1.33;;;;;;;25.92;76.45;98519.94;15265991;19;20021;-54
2023/09/09 10:46:41;;;;;;;1.42;1.17;;;;;;;26.16;80.66;98520.47;15264113;19;20021;-53
2023/09/09 10:52:06;;;;;;;2.45;1.23;;;;;;;26.33;77.89;98525.88;15272548;19;20021;-55
2023/09/09 10:57:42;;;;;;;1.92;1.35;;;;;;;26.49;73.62;98529.63;15271770;19;20248;-53
2023/09/09 11:03:18;;;;;;;2.33;1.38;;;;;;;26.65;67.51;98522.28;15271396;19;20019;-55
2023/09/09 11:08:48;;;;;;;1.40;1.10;;;;;;;26.82;66.91;98510.28;15268512;19;20047;-57
2023/09/09 11:14:17;;;;;;;2.20;1.37;;;;;;;26.94;66.58;98508.16;15261419;19;20019;-55
2023/09/09 11:19:50;;;;;;;1.67;1.33;;;;;;;27.10;64.09;98516.53;15267495;19;20428;-55
2023/09/09 11:25:17;;;;;;;1.08;0.90;;;;;;;27.28;57.92;98513.31;15269968;19;20074;-53
2023/09/09 11:30:53;;;;;;;2.30;1.10;;;;;;;27.42;58.21;98512.81;15270828;19;20010;-54
2023/09/09 11:36:19;;;;;;;2.47;0.93;;;;;;;27.50;56.54;98521.47;15269853;19;20078;-54
2023/09/09 11:41:45;;;;;;;1.02;1.00;;;;;;;27.64;56.59;98507.97;15265468;19;20390;-54
2023/09/09 11:47:13;;;;;;;1.30;1.20;;;;;;;27.84;56.04;98514.66;15255740;19;20029;-53
2023/09/09 11:52:37;;;;;;;1.58;1.10;;;;;;;27.92;58.56;98516.91;15274758;19;20024;-56
2023/09/09 11:58:03;;;;;;;1.10;1.00;;;;;;;28.06;59.51;98496.97;15277533;19;20006;-54
2023/09/09 12:03:31;;;;;;;2.15;1.00;;;;;;;28.26;55.49;98499.81;15279239;19;20022;-52
2023/09/09 12:08:59;;;;;;;2.00;1.15;;;;;;;28.23;52.63;98492.03;15276672;19;20021;-53
2023/09/09 12:14:24;;;;;;;1.15;0.90;;;;;;;28.36;55.44;98498.16;15283058;19;20018;-53
2023/09/09 12:19:59;;;;;;;2.25;1.08;;;;;;;28.42;53.32;98492.34;15266794;19;20025;-52
2023/09/09 12:25:39;;;;;;;1.60;0.95;;;;;;;28.52;53.41;98480.38;15277700;19;20558;-51
2023/09/09 12:31:04;;;;;;;1.23;1.02;;;;;;;28.81;54.47;98482.63;15281163;19;20017;-54
2023/09/09 12:36:31;;;;;;;1.20;1.10;;;;;;;29.02;54.39;98474.25;15280024;19;20015;-53
2023/09/09 12:42:00;;;;;;;2.15;1.02;;;;;;;29.20;50.82;98472.81;15278627;19;20018;-52
2023/09/09 12:47:29;;;;;;;1.83;1.00;;;;;;;29.21;52.30;98464.22;15277051;19;20019;-53
2023/09/09 12:53:01;;;;;;;1.13;1.02;;;;;;;29.49;53.09;98464.66;15267222;19;20603;-52
2023/09/09 12:58:25;;;;;;;3.08;1.17;;;;;;;29.61;50.68;98471.81;15276003;19;20014;-55
2023/09/09 13:03:50;;;;;;;1.60;1.00;;;;;;;29.72;49.14;98473.41;15276207;19;20599;-52
2023/09/09 13:09:17;;;;;;;2.40;1.10;;;;;;;29.88;49.70;98481.66;15271561;19;20063;-55
2023/09/09 13:14:42;;;;;;;3.60;1.00;;;;;;;29.98;49.49;98470.50;15275774;19;20063;-54
2023/09/09 13:20:06;;;;;;;1.48;1.00;;;;;;;30.18;48.75;98468.69;15270153;19;20407;-55
2023/09/09 13:25:34;;;;;;;1.88;1.00;;;;;;;30.41;49.07;98470.72;15262099;19;20379;-54
2023/09/09 13:30:58;;;;;;;1.08;0.90;;;;;;;30.76;48.88;98473.50;15279419;19;20010;-54
2023/09/09 13:36:24;;;;;;;2.30;1.00;;;;;;;30.90;48.70;98462.50;15275364;19;20697;-56
2023/09/09 13:41:51;;;;;;;1.00;0.90;;;;;;;30.95;47.87;98459.69;15277380;19;20050;-56
2023/09/09 13:47:17;;;;;;;0.98;0.90;;;;;;;31.02;46.60;98459.34;15275782;19;20033;-55
2023/09/09 13:52:42;;;;;;;2.70;1.00;;;;;;;30.87;47.23;98455.59;15275993;19;20024;-55
2023/09/09 13:58:10;;;;;;;2.08;1.05;;;;;;;31.12;44.70;98458.38;15259289;19;20010;-53
2023/09/09 14:03:34;;;;;;;1.08;0.98;;;;;;;31.35;45.84;98456.72;15274672;19;20862;-53
2023/09/09 14:08:59;;;;;;;1.13;1.00;;;;;;;31.66;46.07;98457.16;15271544;19;20078;-52
2023/09/09 14:14:26;;;;;;;1.17;0.98;;;;;;;32.19;45.66;98441.31;15273664;19;20046;-52
2023/09/09 14:19:51;;;;;;;1.30;0.88;;;;;;;32.49;43.38;98441.97;15274150;19;20023;-56
2023/09/09 14:25:16;;;;;;;1.23;0.93;;;;;;;32.69;43.16;98442.72;15272426;19;20014;-52
2023/09/09 14:30:46;;;;;;;1.73;0.95;;;;;;;32.92;42.30;98440.09;15260705;19;20464;-54
2023/09/09 14:36:11;;;;;;;;;;;;;;;33.25;41.36;98446.41;15273449;19;20025;-55
2023/09/09 14:41:36;;;;;;;1.85;1.00;;;;;;;33.34;43.26;98440.97;15270015;19;19929;-52
2023/09/09 14:47:03;;;;;;;0.88;0.88;;;;;;;33.21;42.63;98441.75;15269002;19;20018;-54
2023/09/09 14:52:30;;;;;;;1.55;0.90;;;;;;;33.76;40.97;98436.09;15273360;19;20612;-55
2023/09/09 14:57:54;;;;;;;1.25;0.90;;;;;;;33.98;41.60;98420.53;15266824;19;20025;-54
2023/09/09 15:03:22;;;;;;;1.45;0.90;;;;;;;33.81;39.67;98427.56;15265623;19;20558;-56
2023/09/09 15:08:46;;;;;;;0.77;0.77;;;;;;;33.92;41.30;98421.81;15268592;19;20031;-54
2023/09/09 15:14:11;;;;;;;1.58;1.00;;;;;;;34.24;39.17;98425.47;15270206;19;20029;-55
2023/09/09 15:19:39;;;;;;;1.33;0.85;;;;;;;34.16;39.60;98426.25;15263633;19;20021;-53
2023/09/09 15:25:04;;;;;;;0.88;0.88;;;;;;;34.23;39.29;98416.25;15268330;19;20526;-53
2023/09/09 15:30:28;;;;;;;1.85;1.00;;;;;;;34.20;40.59;98411.31;15262832;19;20024;-55
2023/09/09 15:36:02;;;;;;;0.80;0.80;;;;;;;34.37;39.50;98412.56;15260461;19;20050;-54
2023/09/09 15:41:27;;;;;;;0.95;0.90;;;;;;;34.31;39.98;98417.47;15268412;19;20015;-55
2023/09/09 15:46:52;;;;;;;1.45;0.88;;;;;;;34.25;39.80;98413.16;15267037;19;20086;-50
2023/09/09 15:52:20;;;;;;;1.30;0.90;;;;;;;33.61;39.85;98405.72;15267584;19;20078;-51
2023/09/09 15:57:45;;;;;;;0.95;0.90;;;;;;;33.22;40.35;98404.34;15277776;19;20083;-55
2023/09/09 16:03:09;;;;;;;1.02;0.90;;;;;;;33.12;40.60;98403.38;15266580;19;20036;-50
2023/09/09 16:08:39;;;;;;;1.30;0.90;;;;;;;33.55;39.75;98404.19;15256142;19;20031;-56
2023/09/09 16:14:03;;;;;;;2.25;0.95;;;;;;;33.57;39.98;98408.31;15268510;19;20082;-58
2023/09/09 16:19:34;;;;;;;1.58;1.00;;;;;;;33.96;39.50;98411.63;15263773;19;20035;-53
2023/09/09 16:25:04;;;;;;;1.05;0.80;;;;;;;33.91;39.21;98409.78;15265514;19;20014;-53
2023/09/09 16:30:29;;;;;;;2.83;1.00;;;;;;;33.73;40.10;98414.38;15263969;19;20074;-53
2023/09/09 16:35:54;;;;;;;2.45;0.80;;;;;;;33.86;39.19;98411.84;15261166;19;20675;-55
2023/09/09 16:41:21;;;;;;;2.92;0.80;;;;;;;33.99;39.84;98411.00;15274839;19;20066;-52
2023/09/09 16:46:46;;;;;;;1.33;0.80;;;;;;;34.17;40.60;98422.28;15278823;19;20020;-51
2023/09/09 16:52:11;;;;;;;1.98;0.90;;;;;;;34.26;40.63;98414.81;15281553;19;20021;-55
2023/09/09 16:57:40;;;;;;;1.70;0.93;;;;;;;34.22;40.53;98431.38;15279909;19;20081;-54
2023/09/09 17:03:05;;;;;;;0.87;0.77;;;;;;;34.01;41.36;98431.06;15291808;19;20036;-55
2023/09/09 17:08:30;;;;;;;2.33;1.00;;;;;;;33.57;41.67;98424.25;15268558;19;20038;-55
2023/09/09 17:13:57;;;;;;;3.80;1.02;;;;;;;33.15;41.89;98422.31;15278325;19;20031;-52
2023/09/09 17:19:29;;;;;;;2.40;1.05;;;;;;;32.72;42.08;98425.38;15269270;19;20019;-53
2023/09/09 17:24:54;;;;;;;0.90;0.90;;;;;;;32.15;42.74;98418.00;15277247;19;20122;-53
2023/09/09 17:30:24;;;;;;;2.03;1.00;;;;;;;31.76;43.21;98433.09;15272849;19;20025;-53
2023/09/09 17:35:50;;;;;;;2.92;0.98;;;;;;;31.28;44.02;98439.59;15278070;19;20015;-52
2023/09/09 17:41:15;;;;;;;3.00;1.10;;;;;;;30.15;47.55;98439.56;15264411;19;20093;-54
2023/09/09 17:46:43;;;;;;;2.05;1.30;;;;;;;29.21;48.84;98442.03;15273165;19;20018;-54
2023/09/09 17:52:08;;;;;;;2.60;1.15;;;;;;;28.90;48.71;98444.88;15273784;19;20038;-53
2023/09/09 17:57:33;;;;;;;9.73;1.35;;;;;;;28.36;50.82;98438.00;15275025;19;20019;-56
2023/09/09 18:03:00;;;;;;;1.40;1.20;;;;;;;28.09;51.85;98455.75;15274797;19;20006;-55
2023/09/09 18:08:24;;;;;;;2.03;1.20;;;;;;;27.77;53.32;98455.97;15271697;19;20064;-56
2023/09/09 18:13:49;;;;;;;1.55;1.10;;;;;;;27.34;54.74;98456.88;15260862;19;20020;-54
2023/09/09 18:19:17;;;;;;;1.85;1.15;;;;;;;27.16;56.21;98460.16;15266291;19;20563;-51
2023/09/09 18:24:43;;;;;;;1.77;1.15;;;;;;;26.84;60.04;98472.16;15273510;19;20098;-52
2023/09/09 18:30:09;;;;;;;3.38;1.20;;;;;;;26.57;65.41;98470.28;15266272;19;20021;-53
2023/09/09 18:35:37;;;;;;;3.22;1.30;;;;;;;26.32;66.85;98480.03;15264570;19;20015;-54
2023/09/09 18:41:02;;;;;;;2.33;1.45;;;;;;;26.05;71.15;98469.00;15262342;19;20010;-54
2023/09/09 18:46:27;;;;;;;1.52;1.23;;;;;;;25.79;72.94;98471.50;15257252;19;20508;-54
2023/09/09 18:51:54;;;;;;;1.80;1.20;;;;;;;25.52;76.48;98473.16;15270031;19;20010;-55
2023/09/09 18:57:20;;;;;;;1.98;1.20;;;;;;;25.29;76.00;98473.38;15270414;19;20033;-53
2023/09/09 19:02:45;;;;;;;1.95;1.27;;;;;;;25.07;78.64;98476.97;15271489;19;20034;-53
2023/09/09 19:08:13;;;;;;;2.28;1.40;;;;;;;24.82;87.00;98485.69;15269150;19;20464;-53
2023/09/09 19:13:38;;;;;;;1.55;1.30;;;;;;;24.56;90.61;98488.88;15270056;19;20018;-51
2023/09/09 19:19:03;;;;;;;2.72;1.45;;;;;;;24.31;89.85;98497.56;15256255;19;20412;-54
2023/09/09 19:24:31;;;;;;;2.05;1.25;;;;;;;24.10;93.90;98512.88;15268753;19;20789;-56
2023/09/09 19:29:56;;;;;;;2.88;1.30;;;;;;;23.76;100.00;98515.53;15269526;19;20022;-51
2023/09/09 19:35:21;;;;;;;4.07;1.38;;;;;;;23.37;100.00;98516.13;15269703;19;20022;-50
2023/09/09 19:40:48;;;;;;;1.73;1.35;;;;;;;22.98;100.00;98522.13;15269243;19;20408;-52
2023/09/09 19:46:12;;;;;;;2.80;1.30;;;;;;;22.73;100.00;98517.72;15267483;19;20018;-53
2023/09/09 19:51:37;;;;;;;5.82;1.50;;;;;;;22.67;100.00;98523.34;15255550;19;20683;-54
2023/09/09 19:57:04;;;;;;;1.85;1.70;;;;;;;22.67;100.00;98526.09;15268665;19;20601;-51
2023/09/09 20:02:30;;;;;;;1.60;1.48;;;;;;;22.70;100.00;98529.19;15265877;19;20059;-47
2023/09/09 20:07:55;;;;;;;3.72;1.75;;;;;;;22.75;100.00;98531.22;15262759;19;20361;-50
2023/09/09 20:13:23;;;;;;;2.75;1.73;;;;;;;22.75;100.00;98523.81;15277032;19;20010;-48
2023/09/09 20:18:47;;;;;;;3.78;1.70;;;;;;;22.76;100.00;98536.44;15278012;19;20015;-50
2023/09/09 20:24:19;;;;;;;4.60;1.80;;;;;;;22.71;100.00;98538.25;15246644;19;20521;-48
2023/09/09 20:29:47;;;;;;;2.33;1.52;;;;;;;22.59;100.00;98538.25;15278859;19;20013;-48
2023/09/09 20:35:13;;;;;;;1.70;1.60;;;;;;;22.35;100.00;98543.66;15281741;19;20014;-47
2023/09/09 20:40:54;;;;;;;2.63;1.50;;;;;;;22.12;100.00;98541.69;15280709;19;20020;-50
2023/09/09 20:46:22;;;;;;;1.88;1.70;;;;;;;21.89;100.00;98531.47;15280014;19;20426;-52
2023/09/09 20:51:46;;;;;;;2.75;1.50;;;;;;;21.72;100.00;98531.28;15278194;19;20587;-49
2023/09/09 20:57:11;;;;;;;2.17;1.67;;;;;;;21.60;100.00;98525.72;15264263;19;20033;-48
2023/09/09 21:02:38;;;;;;;4.25;1.80;;;;;;;21.47;100.00;98522.06;15277798;19;20010;-50
2023/09/09 21:08:03;;;;;;;4.20;1.80;;;;;;;21.33;100.00;98531.53;15273397;19;20012;-50
2023/09/09 21:13:27;;;;;;;4.07;1.88;;;;;;;21.18;100.00;98530.00;15268389;19;20356;-49
2023/09/09 21:18:55;;;;;;;1.60;1.50;;;;;;;;;;15264765;19;20848;-49
2023/09/09 21:24:26;;;;;;;2.35;1.95;;;;;;;20.96;100.00;98535.06;15273281;19;20027;-53
2023/09/09 21:29:50;;;;;;;2.05;1.75;;;;;;;20.84;100.00;98535.00;15266817;19;20010;-50
2023/09/09 21:35:18;;;;;;;2.30;1.60;;;;;;;20.73;100.00;98530.22;15276650;19;20078;-53
2023/09/09 21:40:43;;;;;;;3.10;1.80;;;;;;;20.62;100.00;98526.31;15275523;19;20494;-51
2023/09/09 21:46:07;;;;;;;1.92;1.70;;;;;;;20.55;100.00;98528.28;15276357;19;20024;-52
2023/09/09 21:51:34;;;;;;;1.95;1.80;;;;;;;20.48;100.00;98531.06;14765713;19;10000767;-51
2023/09/09 21:56:59;;;;;;;2.38;1.90;;;;;;;20.43;100.00;98522.69;15274916;19;20374;-51
2023/09/09 22:02:23;;;;;;;2.22;1.90;;;;;;;20.39;100.00;98522.28;15261104;19;20020;-48
2023/09/09 22:07:52;;;;;;;5.18;1.80;;;;;;;20.37;100.00;98529.06;15271983;19;20027;-49
2023/09/09 22:13:16;;;;;;;3.58;1.83;;;;;;;20.31;100.00;98526.13;15272123;19;20090;-51
2023/09/09 22:18:41;;;;;;;3.53;2.00;;;;;;;20.22;100.00;98527.47;15271696;19;20476;-50
2023/09/09 22:24:16;;;;;;;3.38;2.10;;;;;;;20.15;100.00;98529.44;15269130;19;20038;-51
2023/09/09 22:29:40;;;;;;;2.63;2.20;;;;;;;20.06;100.00;98530.72;15268983;19;20479;-51
2023/09/09 22:35:05;;;;;;;2.20;2.00;;;;;;;19.96;100.00;98532.06;15266454;19;20021;-50
2023/09/09 22:40:33;;;;;;;3.60;2.00;;;;;;;19.90;100.00;98523.88;15272932;19;20014;-48
2023/09/09 22:45:58;;;;;;;3.88;2.00;;;;;;;19.79;100.00;98526.22;15271292;19;20014;-52
2023/09/09 22:51:24;;;;;;;5.50;1.90;;;;;;;19.70;100.00;98528.38;15272738;19;20021;-52
2023/09/09 22:56:52;;;;;;;2.00;1.80;;;;;;;19.61;100.00;98535.16;15270376;19;20031;-48
2023/09/09 23:02:17;;;;;;;2.55;1.85;;;;;;;19.53;100.00;98535.41;15264036;19;20017;-51
2023/09/09 23:07:42;;;;;;;4.28;2.20;;;;;;;19.44;100.00;98526.59;15263918;19;20121;-52
2023/09/09 23:13:12;;;;;;;2.55;1.98;;;;;;;19.36;100.00;98530.41;15273074;19;20074;-49
2023/09/09 23:18:37;;;;;;;3.17;2.03;;;;;;;19.28;100.00;98525.19;15245893;19;20025;-48
2023/09/09 23:24:08;;;;;;;2.10;1.90;;;;;;;19.20;100.00;98520.81;15266097;19;20070;-48
2023/09/09 23:29:35;;;;;;;3.92;1.98;;;;;;;19.13;100.00;98521.88;15266661;19;20014;-50
2023/09/09 23:35:01;;;;;;;2.45;1.83;;;;;;;19.05;100.00;98528.44;15266255;19;20026;-48
2023/09/09 23:40:25;;;;;;;2.88;2.00;;;;;;;18.99;100.00;98519.22;15264456;19;20011;-48
2023/09/09 23:45:55;;;;;;;3.28;2.30;;;;;;;18.90;100.00;98520.44;15272900;19;20773;-49
2023/09/09 23:51:19;;;;;;;3.47;2.13;;;;;;;18.84;100.00;98521.31;15284373;19;20014;-48
2023/09/09 23:56:47;;;;;;;2.58;2.00;;;;;;;18.76;100.00;98517.72;15283480;19;20013;-48
